KTTN/TTN METAR and TAF weather

Enter ICAO airport designator
Station Type Date Time Source
KTTN METAR 2024/06/14 02:53 UTC NOAA

KTTN 140253Z AUTO 17008KT 10SM CLR 22/16 A2996 RMK AO2 SLP138 T02170156 50002


Station Type Date Time Source
KTTN Decoded METAR 2024/06/14 02:53 UTC NOAA

TRENTON MERCER COUNTY AIRPORT , NJ, United States (KTTN) 40-17N 074-49W 59M
Jun 13, 2024 - 10:53 PM EDT / 2024.06.14 0253 UTC
Wind: from the S (170 degrees) at 9 MPH (8 KT):0
Visibility: 10 mile(s):0
Sky conditions: clear
Temperature: 71.1 F (21.7 C)
Dew Point: 60.1 F (15.6 C)
Relative Humidity: 68%
Pressure (altimeter): 29.96 in. Hg (1014 hPa)
Pressure tendency: 0.01 inches (0.2 hPa) higher than three hours ago
ob: KTTN 140253Z AUTO 17008KT 10SM CLR 22/16 A2996 RMK AO2 SLP138 T02170156 50002
cycle: 3

Station Type Date Time Source
KTTN TAF 2024/06/13 18:24 UTC NOAA